createdAt,value
2022-12-03T00:01:14.807Z,27.97
2022-12-03T00:03:41.732Z,28.20
2022-12-03T00:06:08.672Z,27.73
2022-12-03T00:08:35.421Z,29.50
2022-12-03T00:11:02.280Z,27.63
2022-12-03T00:13:29.164Z,27.40
2022-12-03T00:15:56.422Z,29.40
2022-12-03T00:18:23.282Z,27.63
2022-12-03T00:20:50.126Z,26.77
2022-12-03T00:23:17.081Z,25.33
2022-12-03T00:25:44.006Z,27.40
2022-12-03T00:28:10.787Z,38.37
2022-12-03T00:30:37.880Z,27.77
2022-12-03T00:33:04.717Z,30.00
2022-12-03T00:35:31.528Z,28.13
2022-12-03T00:37:58.449Z,26.63
2022-12-03T00:40:25.302Z,28.57
2022-12-03T00:42:52.082Z,27.93
2022-12-03T00:45:18.861Z,25.00
2022-12-03T00:47:45.648Z,26.07
2022-12-03T00:50:12.545Z,25.40
2022-12-03T00:52:39.391Z,26.43
2022-12-03T00:55:06.509Z,25.80
2022-12-03T00:57:33.281Z,24.20
2022-12-03T01:00:00.140Z,24.93
2022-12-03T01:02:26.962Z,25.83
2022-12-03T01:04:54.068Z,24.80
2022-12-03T01:07:21.122Z,25.90
2022-12-03T01:09:48.021Z,27.23
2022-12-03T01:12:14.841Z,24.93
2022-12-03T01:14:41.679Z,26.23
2022-12-03T01:17:08.495Z,26.80
2022-12-03T01:19:35.934Z,26.40
2022-12-03T01:22:02.906Z,27.37
2022-12-03T01:24:29.972Z,25.30
2022-12-03T01:26:57.649Z,27.47
2022-12-03T01:29:24.749Z,27.90
2022-12-03T01:32:10.029Z,27.57
2022-12-03T01:34:36.900Z,25.67
2022-12-03T01:37:03.944Z,25.33
2022-12-03T01:39:30.809Z,23.83
2022-12-03T01:42:01.827Z,25.63
2022-12-03T01:44:31.443Z,24.77
2022-12-03T01:47:01.255Z,27.87
2022-12-03T01:49:44.198Z,26.10
2022-12-03T01:52:17.053Z,24.57
2022-12-03T01:54:59.086Z,27.20
2022-12-03T01:57:31.222Z,25.37
2022-12-03T01:59:59.835Z,25.90
2022-12-03T02:02:30.146Z,24.93
2022-12-03T02:04:57.457Z,26.10
2022-12-03T02:07:26.280Z,26.83
2022-12-03T02:09:54.989Z,26.27
2022-12-03T02:12:36.358Z,27.17
2022-12-03T02:15:04.743Z,25.37
2022-12-03T02:17:31.899Z,26.87
2022-12-03T02:20:00.003Z,25.40
2022-12-03T02:22:36.425Z,24.90
2022-12-03T02:25:13.737Z,25.80
2022-12-03T02:27:40.807Z,26.23
2022-12-03T02:30:08.686Z,25.03
2022-12-03T02:32:38.527Z,25.73
2022-12-03T02:35:05.696Z,26.10
2022-12-03T02:37:35.335Z,23.80
2022-12-03T02:40:10.464Z,24.47
2022-12-03T02:42:37.739Z,24.93
2022-12-03T02:45:10.266Z,26.00
2022-12-03T02:47:45.107Z,25.63
2022-12-03T02:50:15.226Z,24.90
2022-12-03T02:52:45.014Z,21.73
2022-12-03T02:55:14.352Z,24.13
2022-12-03T02:57:42.597Z,25.63
2022-12-03T03:00:10.896Z,25.40
2022-12-03T03:02:40.418Z,25.60
2022-12-03T03:05:09.612Z,24.90
2022-12-03T03:07:36.963Z,23.60
2022-12-03T03:10:06.559Z,23.60
2022-12-03T03:12:39.017Z,25.37
2022-12-03T03:15:08.192Z,23.20
2022-12-03T03:17:35.143Z,24.30
2022-12-03T03:20:03.533Z,22.37
2022-12-03T03:22:35.662Z,21.87
2022-12-03T03:25:03.020Z,23.13
2022-12-03T03:27:30.416Z,21.60
2022-12-03T03:29:59.170Z,20.37
2022-12-03T03:32:28.792Z,22.73
2022-12-03T03:34:56.646Z,21.27
2022-12-03T03:37:24.428Z,22.43
2022-12-03T03:39:51.677Z,21.73
2022-12-03T03:42:18.631Z,21.67
2022-12-03T03:44:45.648Z,21.40
2022-12-03T03:47:13.098Z,22.13
2022-12-03T03:49:40.490Z,21.53
2022-12-03T03:52:10.147Z,22.10
2022-12-03T03:54:37.781Z,21.63
2022-12-03T03:57:05.348Z,23.57
2022-12-03T03:59:34.689Z,22.93
2022-12-03T04:02:01.508Z,22.63
2022-12-03T04:04:34.380Z,22.00
2022-12-03T04:07:01.195Z,22.57
2022-12-03T04:09:27.957Z,21.37
2022-12-03T04:14:45.547Z,21.90
2022-12-03T04:17:12.327Z,21.37
2022-12-03T04:19:39.156Z,21.60
2022-12-03T04:22:24.541Z,21.80
2022-12-03T04:24:51.618Z,21.30
2022-12-03T04:27:37.068Z,21.47
2022-12-03T04:30:04.142Z,23.27
2022-12-03T04:32:52.658Z,21.93
2022-12-03T04:35:38.205Z,21.77
2022-12-03T04:38:05.013Z,23.33
2022-12-03T04:40:50.828Z,22.83
2022-12-03T04:43:17.611Z,21.87
2022-12-03T04:45:44.411Z,22.47
2022-12-03T04:48:11.291Z,23.17
2022-12-03T04:50:38.098Z,20.47
2022-12-03T04:53:04.980Z,22.33
2022-12-03T04:55:31.844Z,21.30
2022-12-03T04:57:59.393Z,19.67
2022-12-03T05:00:26.254Z,22.77
2022-12-03T05:02:53.079Z,20.90
2022-12-03T05:05:19.992Z,20.70
2022-12-03T05:07:49.456Z,21.63
2022-12-03T05:10:16.363Z,21.70
2022-12-03T05:12:43.168Z,21.27
2022-12-03T05:15:10.178Z,22.03
2022-12-03T05:17:37.018Z,21.40
2022-12-03T05:20:22.690Z,23.10
2022-12-03T05:22:49.524Z,22.53
2022-12-03T05:25:16.359Z,21.23
2022-12-03T05:27:43.150Z,23.10
2022-12-03T05:30:10.420Z,23.13
2022-12-03T05:32:38.528Z,24.40
2022-12-03T05:35:05.772Z,25.27
2022-12-03T05:37:35.095Z,24.50
2022-12-03T05:40:04.042Z,24.17
2022-12-03T05:42:49.465Z,24.57
2022-12-03T05:45:16.413Z,24.23
2022-12-03T05:47:43.227Z,23.73
2022-12-03T05:50:10.539Z,25.07
2022-12-03T05:52:37.321Z,24.23
2022-12-03T05:55:04.534Z,23.90
2022-12-03T05:57:31.293Z,23.43
2022-12-03T05:59:58.075Z,23.47
2022-12-03T06:02:25.025Z,23.67
2022-12-03T06:04:52.377Z,23.13
2022-12-03T06:07:19.507Z,22.43
2022-12-03T06:09:46.401Z,19.80
2022-12-03T06:12:13.203Z,21.00
2022-12-03T06:14:39.966Z,21.37
2022-12-03T06:17:07.058Z,21.07
2022-12-03T06:19:36.367Z,20.77
2022-12-03T06:22:03.179Z,20.40
2022-12-03T06:24:30.012Z,20.67
2022-12-03T06:26:56.881Z,21.23
2022-12-03T06:29:23.710Z,20.40
2022-12-03T06:31:50.587Z,20.30
2022-12-03T06:34:17.393Z,21.63
2022-12-03T06:36:44.201Z,20.50
2022-12-03T06:39:11.128Z,19.87
2022-12-03T06:41:37.935Z,20.27
2022-12-03T06:44:05.213Z,21.10
2022-12-03T06:46:32.081Z,22.77
2022-12-03T06:48:59.338Z,21.70
2022-12-03T06:51:26.364Z,20.80
2022-12-03T06:53:53.318Z,20.30
2022-12-03T06:56:22.444Z,21.30
2022-12-03T06:58:49.469Z,18.83
2022-12-03T07:01:16.362Z,20.73
2022-12-03T07:03:43.188Z,19.37
2022-12-03T07:06:10.250Z,20.13
2022-12-03T07:08:37.227Z,19.13
2022-12-03T07:11:04.171Z,18.77
2022-12-03T07:13:30.979Z,19.37
2022-12-03T07:15:57.848Z,18.77
2022-12-03T07:18:24.729Z,20.17
2022-12-03T07:20:51.669Z,18.93
2022-12-03T07:23:18.489Z,19.20
2022-12-03T07:25:45.339Z,19.57
2022-12-03T07:28:12.144Z,20.17
2022-12-03T07:30:38.924Z,21.20
2022-12-03T07:33:05.663Z,21.73
2022-12-03T07:35:32.422Z,20.27
2022-12-03T07:38:02.206Z,21.97
2022-12-03T07:40:29.063Z,20.13
2022-12-03T07:42:55.894Z,19.43
2022-12-03T07:45:22.658Z,19.37
2022-12-03T07:47:49.411Z,19.03
2022-12-03T07:50:16.226Z,18.57
2022-12-03T07:52:43.185Z,18.83
2022-12-03T07:55:11.742Z,18.97
2022-12-03T07:57:38.651Z,18.77
2022-12-03T08:00:06.789Z,19.87
2022-12-03T08:02:33.671Z,18.03
2022-12-03T08:05:00.544Z,19.17
2022-12-03T08:07:27.469Z,18.20
2022-12-03T08:09:55.258Z,18.80
2022-12-03T08:12:40.167Z,19.37
2022-12-03T08:15:20.746Z,19.40
2022-12-03T08:17:53.523Z,19.30
2022-12-03T08:20:23.687Z,17.10
2022-12-03T08:22:52.711Z,18.30
2022-12-03T08:25:31.504Z,18.43
2022-12-03T08:28:23.083Z,17.60
2022-12-03T08:31:20.666Z,18.70
2022-12-03T08:33:50.495Z,19.47
2022-12-03T08:36:30.962Z,18.80
2022-12-03T08:39:14.531Z,20.40
2022-12-03T08:42:00.408Z,19.93
2022-12-03T08:44:40.949Z,20.13
2022-12-03T08:47:16.329Z,20.00
2022-12-03T08:49:51.042Z,19.23
2022-12-03T08:52:22.893Z,19.63
2022-12-03T08:54:53.972Z,18.43
2022-12-03T08:57:24.754Z,19.57
2022-12-03T08:59:56.552Z,19.10
2022-12-03T09:02:33.163Z,19.20
2022-12-03T09:05:13.236Z,18.83
2022-12-03T09:07:40.183Z,17.17
2022-12-03T09:10:07.949Z,19.80
2022-12-03T09:12:35.050Z,18.77
2022-12-03T09:15:01.867Z,19.97
2022-12-03T09:17:28.848Z,19.27
2022-12-03T09:19:55.680Z,19.60
2022-12-03T09:22:22.827Z,20.20
2022-12-03T09:24:49.639Z,20.60
2022-12-03T09:27:16.505Z,19.47
2022-12-03T09:29:43.226Z,19.63
2022-12-03T09:32:13.778Z,20.80
2022-12-03T09:34:44.791Z,22.00
2022-12-03T09:37:11.596Z,21.00
2022-12-03T09:39:38.435Z,20.73
2022-12-03T09:42:05.524Z,20.70
2022-12-03T09:44:34.305Z,20.60
2022-12-03T09:47:03.152Z,21.53
2022-12-03T09:49:33.011Z,21.53
2022-12-03T09:52:02.847Z,19.83
2022-12-03T09:54:31.253Z,19.33
2022-12-03T09:57:00.946Z,20.00
2022-12-03T09:59:31.769Z,20.63
2022-12-03T10:01:59.302Z,18.77
2022-12-03T10:04:27.719Z,21.50
2022-12-03T10:06:56.183Z,20.70
2022-12-03T10:09:28.304Z,21.93
2022-12-03T10:11:57.136Z,20.70
2022-12-03T10:14:24.386Z,20.93
2022-12-03T10:16:51.738Z,21.50
2022-12-03T10:19:28.491Z,21.77
2022-12-03T10:21:55.832Z,21.17
2022-12-03T10:24:32.059Z,21.33
2022-12-03T10:27:30.726Z,20.60
2022-12-03T10:29:59.568Z,17.67
2022-12-03T10:32:50.080Z,17.23
2022-12-03T10:35:23.486Z,17.87
2022-12-03T10:38:03.751Z,21.00
2022-12-03T10:40:36.208Z,17.17
2022-12-03T10:43:18.326Z,18.63
2022-12-03T10:45:50.715Z,18.43
2022-12-03T10:48:26.344Z,18.73
2022-12-03T10:50:54.441Z,19.37
2022-12-03T10:53:26.166Z,19.00
2022-12-03T10:55:58.733Z,19.77
2022-12-03T10:58:31.852Z,19.90
2022-12-03T11:01:01.292Z,19.97
2022-12-03T11:03:30.823Z,20.27
2022-12-03T11:06:00.281Z,20.87
2022-12-03T11:08:30.666Z,20.27
2022-12-03T11:11:05.233Z,20.37
2022-12-03T11:13:35.060Z,21.27
2022-12-03T11:16:04.751Z,21.97
2022-12-03T11:18:37.616Z,21.97
2022-12-03T11:21:08.765Z,21.53
2022-12-03T11:23:44.862Z,22.03
2022-12-03T11:26:39.463Z,21.30
2022-12-03T11:29:14.686Z,22.33
2022-12-03T11:31:46.634Z,23.77
2022-12-03T11:34:19.776Z,22.80
2022-12-03T11:37:11.701Z,23.57
2022-12-03T11:39:50.996Z,21.57
2022-12-03T11:42:25.486Z,20.87
2022-12-03T11:45:04.645Z,18.63
2022-12-03T11:47:42.245Z,19.97
2022-12-03T11:50:20.846Z,19.23
2022-12-03T11:53:09.481Z,19.47
2022-12-03T11:55:38.712Z,21.07
2022-12-03T11:58:25.888Z,20.67
2022-12-03T12:00:58.286Z,19.33
2022-12-03T12:03:34.118Z,18.03
2022-12-03T12:06:18.868Z,18.80
2022-12-03T12:08:51.282Z,21.80
2022-12-03T12:11:27.419Z,24.50
2022-12-03T12:13:59.724Z,21.93
2022-12-03T12:16:47.657Z,17.07
2022-12-03T12:19:42.523Z,20.73
2022-12-03T12:22:20.411Z,22.17
2022-12-03T12:24:51.538Z,20.83
2022-12-03T12:27:23.001Z,21.87
2022-12-03T12:29:58.214Z,21.83
2022-12-03T12:32:33.913Z,20.63
2022-12-03T12:35:30.772Z,22.90
2022-12-03T12:38:06.525Z,19.63
2022-12-03T12:40:38.978Z,22.40
2022-12-03T12:43:26.432Z,23.70
2022-12-03T12:45:56.386Z,23.57
2022-12-03T12:48:28.331Z,21.20
2022-12-03T12:51:11.294Z,25.63
2022-12-03T12:53:40.301Z,24.10
2022-12-03T12:56:14.465Z,23.37
2022-12-03T12:58:42.756Z,22.90
2022-12-03T13:01:21.994Z,24.20
2022-12-03T13:03:51.529Z,23.00
2022-12-03T13:06:28.009Z,22.33
2022-12-03T13:08:55.652Z,23.73
2022-12-03T13:11:25.501Z,21.53
2022-12-03T13:13:52.585Z,24.20
2022-12-03T13:16:32.087Z,26.43
2022-12-03T13:19:00.649Z,24.53
2022-12-03T13:21:40.448Z,26.00
2022-12-03T13:24:36.846Z,24.30
2022-12-03T13:27:29.719Z,24.13
2022-12-03T13:30:21.044Z,23.43
2022-12-03T13:32:47.818Z,21.40
2022-12-03T13:35:24.125Z,23.07
2022-12-03T13:37:50.924Z,22.57
2022-12-03T13:40:32.989Z,20.63
2022-12-03T13:42:59.918Z,21.13
2022-12-03T13:45:32.197Z,20.73
2022-12-03T13:48:01.212Z,17.93
2022-12-03T13:50:40.867Z,23.10
2022-12-03T13:53:13.656Z,20.87
2022-12-03T13:55:44.537Z,23.37
2022-12-03T13:58:11.418Z,21.50
2022-12-03T14:00:38.392Z,22.83
2022-12-03T14:03:05.740Z,23.73
2022-12-03T14:05:32.593Z,24.63
2022-12-03T14:08:02.127Z,25.33
2022-12-03T14:10:29.875Z,25.53
2022-12-03T14:12:57.211Z,26.07
2022-12-03T14:15:24.981Z,26.27
2022-12-03T14:17:51.951Z,26.00
2022-12-03T14:20:19.721Z,28.30
2022-12-03T14:22:46.544Z,29.27
2022-12-03T14:25:13.358Z,26.37
2022-12-03T14:27:40.308Z,30.10
2022-12-03T14:30:07.830Z,27.87
2022-12-03T14:32:34.648Z,27.17
2022-12-03T14:35:06.586Z,28.30
2022-12-03T14:37:36.638Z,27.90
2022-12-03T14:40:04.360Z,27.30
2022-12-03T14:42:31.203Z,26.10
2022-12-03T14:44:57.974Z,27.17
2022-12-03T14:47:24.748Z,26.17
2022-12-03T14:49:52.726Z,24.13
2022-12-03T14:52:19.929Z,24.27
2022-12-03T14:55:01.820Z,22.60
2022-12-03T14:57:28.631Z,20.53
2022-12-03T14:59:55.595Z,21.67
2022-12-03T15:02:22.689Z,20.93
2022-12-03T15:04:49.628Z,24.07
2022-12-03T15:07:16.426Z,21.00
2022-12-03T15:09:43.271Z,21.80
2022-12-03T15:12:10.093Z,23.83
2022-12-03T15:14:37.041Z,25.00
2022-12-03T15:17:03.923Z,25.03
2022-12-03T15:19:30.789Z,26.53
2022-12-03T15:21:57.630Z,23.07
2022-12-03T15:24:24.483Z,21.20
2022-12-03T15:26:53.396Z,23.43
2022-12-03T15:29:20.683Z,22.63
2022-12-03T15:31:47.672Z,26.20
2022-12-03T15:34:20.356Z,36.00
2022-12-03T15:36:49.172Z,24.37
2022-12-03T15:39:17.141Z,23.97
2022-12-03T15:41:43.926Z,24.60
2022-12-03T15:44:10.839Z,24.73
2022-12-03T15:46:37.687Z,26.77
2022-12-03T15:49:04.510Z,27.40
2022-12-03T15:51:31.365Z,27.83
2022-12-03T15:54:00.546Z,33.53
2022-12-03T15:56:27.451Z,27.73
2022-12-03T15:58:54.244Z,23.73
2022-12-03T16:01:21.121Z,21.67
2022-12-03T16:03:48.026Z,20.73
2022-12-03T16:06:14.883Z,21.50
2022-12-03T16:08:41.792Z,22.70
2022-12-03T16:11:08.636Z,24.87
2022-12-03T16:13:35.481Z,20.60
2022-12-03T16:16:02.332Z,23.30
2022-12-03T16:18:29.238Z,24.23
2022-12-03T16:20:55.997Z,25.17
2022-12-03T16:23:22.817Z,25.10
2022-12-03T16:25:49.687Z,26.40
2022-12-03T16:28:16.658Z,23.83
2022-12-03T16:30:43.538Z,25.77
2022-12-03T16:33:10.417Z,26.13
2022-12-03T16:35:37.239Z,26.67
2022-12-03T16:38:03.993Z,23.50
2022-12-03T16:40:30.814Z,27.77
2022-12-03T16:42:57.641Z,28.03
2022-12-03T16:45:24.418Z,27.93
2022-12-03T16:47:51.279Z,27.53
2022-12-03T16:50:23.092Z,27.10
2022-12-03T16:52:54.469Z,24.90
2022-12-03T16:55:21.309Z,25.47
2022-12-03T16:57:48.156Z,26.57
2022-12-03T17:00:15.648Z,24.80
2022-12-03T17:02:42.562Z,25.43
2022-12-03T17:05:09.637Z,24.83
2022-12-03T17:07:36.556Z,24.43
2022-12-03T17:10:04.705Z,23.53
2022-12-03T17:12:54.118Z,24.27
2022-12-03T17:15:18.431Z,25.27
2022-12-03T17:17:45.226Z,26.03
2022-12-03T17:20:13.393Z,24.50
2022-12-03T17:22:40.895Z,26.77
2022-12-03T17:25:08.184Z,27.47
2022-12-03T17:27:35.051Z,24.57
2022-12-03T17:30:01.972Z,24.27
2022-12-03T17:32:28.932Z,25.10
2022-12-03T17:34:55.754Z,23.20
2022-12-03T17:37:22.662Z,23.47
2022-12-03T17:39:49.478Z,24.57
2022-12-03T17:42:16.394Z,23.67
2022-12-03T17:44:43.328Z,24.17
2022-12-03T17:47:10.144Z,25.53
2022-12-03T17:49:37.004Z,22.53
2022-12-03T17:52:03.933Z,21.77
2022-12-03T17:54:55.259Z,23.00
2022-12-03T17:57:17.759Z,22.37
2022-12-03T17:59:44.632Z,22.57
2022-12-03T18:02:11.510Z,22.70
2022-12-03T18:04:38.431Z,24.10
2022-12-03T18:07:05.264Z,23.50
2022-12-03T18:09:32.061Z,23.50
2022-12-03T18:11:58.972Z,21.80
2022-12-03T18:14:25.770Z,23.87
2022-12-03T18:16:52.583Z,22.67
2022-12-03T18:19:19.484Z,24.07
2022-12-03T18:21:46.370Z,23.90
2022-12-03T18:24:13.225Z,22.70
2022-12-03T18:26:40.096Z,26.00
2022-12-03T18:29:06.928Z,25.87
2022-12-03T18:31:33.761Z,24.57
2022-12-03T18:34:00.667Z,26.70
2022-12-03T18:36:33.507Z,24.40
2022-12-03T18:39:01.067Z,27.57
2022-12-03T18:41:28.049Z,27.37
2022-12-03T18:43:55.288Z,26.33
2022-12-03T18:46:51.958Z,30.23
2022-12-03T18:49:10.216Z,28.60
2022-12-03T18:51:37.151Z,35.93
2022-12-03T18:54:04.376Z,29.70
2022-12-03T18:56:31.184Z,29.93
2022-12-03T18:58:57.996Z,28.43
2022-12-03T19:01:24.881Z,30.50
2022-12-03T19:03:53.753Z,36.20
2022-12-03T19:06:21.471Z,30.23
2022-12-03T19:08:53.899Z,30.33
2022-12-03T19:11:23.903Z,28.70
2022-12-03T19:13:51.301Z,30.93
2022-12-03T19:16:18.305Z,29.17
2022-12-03T19:18:45.969Z,29.93
2022-12-03T19:21:15.781Z,32.23
2022-12-03T19:23:54.413Z,26.80
2022-12-03T19:26:29.785Z,27.70
2022-12-03T19:28:56.740Z,27.57
2022-12-03T19:31:23.604Z,35.97
2022-12-03T19:33:51.786Z,31.23
2022-12-03T19:36:27.752Z,33.60
2022-12-03T19:38:57.190Z,31.63
2022-12-03T19:41:30.520Z,32.50
2022-12-03T19:43:58.102Z,32.17
2022-12-03T19:46:28.708Z,32.77
2022-12-03T19:48:55.768Z,29.13
2022-12-03T19:51:38.015Z,29.33
2022-12-03T19:54:07.146Z,31.60
2022-12-03T19:56:34.453Z,31.30
2022-12-03T19:59:01.413Z,31.63
2022-12-03T20:01:31.568Z,32.73
2022-12-03T20:04:00.413Z,33.97
2022-12-03T20:06:31.836Z,34.43
2022-12-03T20:09:01.537Z,35.73
2022-12-03T20:11:31.233Z,33.07
2022-12-03T20:14:04.879Z,34.17
2022-12-03T20:16:32.035Z,34.20
2022-12-03T20:19:00.925Z,32.60
2022-12-03T20:21:30.280Z,35.30
2022-12-03T20:23:57.684Z,33.27
2022-12-03T20:26:25.113Z,33.23
2022-12-03T20:28:54.370Z,33.37
2022-12-03T20:31:23.687Z,33.33
2022-12-03T20:33:52.468Z,35.47
2022-12-03T20:36:23.563Z,34.50
2022-12-03T20:38:55.636Z,32.87
2022-12-03T20:41:22.565Z,32.77
2022-12-03T20:43:50.146Z,29.60
2022-12-03T20:46:26.850Z,30.23
2022-12-03T20:48:54.469Z,29.03
2022-12-03T20:51:24.397Z,30.83
2022-12-03T20:53:51.565Z,34.67
2022-12-03T20:56:22.262Z,28.90
2022-12-03T20:58:50.161Z,40.90
2022-12-03T21:01:19.687Z,32.73
2022-12-03T21:03:47.301Z,32.60
2022-12-03T21:06:14.611Z,31.97
2022-12-03T21:08:42.778Z,32.13
2022-12-03T21:11:12.146Z,32.40
2022-12-03T21:13:43.807Z,32.07
2022-12-03T21:16:15.512Z,32.67
2022-12-03T21:18:43.004Z,31.17
2022-12-03T21:21:12.579Z,32.00
2022-12-03T21:23:39.655Z,33.40
2022-12-03T21:26:12.448Z,31.10
2022-12-03T21:28:40.470Z,31.23
2022-12-03T21:31:09.663Z,29.97
2022-12-03T21:33:36.615Z,30.47
2022-12-03T21:36:04.882Z,30.57
2022-12-03T21:38:33.640Z,28.40
2022-12-03T21:41:01.311Z,28.23
2022-12-03T21:43:28.417Z,30.50
2022-12-03T21:45:55.317Z,28.27
2022-12-03T21:48:22.537Z,29.20
2022-12-03T21:51:10.890Z,27.93
2022-12-03T21:53:43.292Z,26.87
2022-12-03T21:56:13.509Z,27.53
2022-12-03T21:58:40.940Z,26.47
2022-12-03T22:01:23.200Z,28.07
2022-12-03T22:03:51.003Z,27.63
2022-12-03T22:06:18.366Z,28.40
2022-12-03T22:08:45.749Z,28.87
2022-12-03T22:11:19.267Z,26.40
2022-12-03T22:13:46.559Z,25.47
2022-12-03T22:16:15.513Z,25.13
2022-12-03T22:18:43.005Z,25.37
2022-12-03T22:21:12.904Z,24.23
2022-12-03T22:23:40.081Z,25.40
2022-12-03T22:26:14.598Z,25.60
2022-12-03T22:28:46.144Z,26.80
2022-12-03T22:31:13.377Z,24.63
2022-12-03T22:33:40.473Z,23.83
2022-12-03T22:36:14.688Z,25.23
2022-12-03T22:38:45.146Z,24.00
2022-12-03T22:41:13.697Z,24.90
2022-12-03T22:43:40.748Z,24.57
2022-12-03T22:46:12.462Z,24.93
2022-12-03T22:48:41.181Z,22.50
2022-12-03T22:51:26.645Z,23.27
2022-12-03T22:53:58.549Z,23.53
2022-12-03T22:56:26.729Z,24.73
2022-12-03T22:58:53.693Z,22.53
2022-12-03T23:01:36.222Z,24.50
2022-12-03T23:04:03.873Z,22.60
2022-12-03T23:06:31.766Z,24.93
2022-12-03T23:08:59.522Z,25.00
2022-12-03T23:11:26.978Z,26.13
2022-12-03T23:13:54.485Z,25.30
2022-12-03T23:16:24.383Z,24.37
2022-12-03T23:18:51.526Z,24.33
2022-12-03T23:21:25.524Z,24.53
2022-12-03T23:23:56.131Z,25.17
2022-12-03T23:26:23.025Z,23.33
2022-12-03T23:28:50.049Z,22.90
2022-12-03T23:31:28.038Z,25.13
2022-12-03T23:33:55.905Z,26.50
2022-12-03T23:36:24.069Z,24.90
2022-12-03T23:38:50.928Z,25.33
2022-12-03T23:41:20.021Z,25.13
2022-12-03T23:43:47.597Z,25.77
2022-12-03T23:46:20.517Z,24.83
2022-12-03T23:48:47.634Z,25.43
2022-12-03T23:51:17.614Z,25.97
2022-12-03T23:53:45.280Z,26.27
2022-12-03T23:56:24.727Z,27.13
2022-12-03T23:58:55.142Z,28.07
